sensor_id;sensor_type;location;lat;lon;timestamp;pressure;altitude;pressure_sealevel;temperature;humidity
83185;BME280;73080;48.768;11.528;2024-02-15T00:02:15;97568.59;;;8.67;82.66
83185;BME280;73080;48.768;11.528;2024-02-15T00:04:41;97576.50;;;8.61;82.93
83185;BME280;73080;48.768;11.528;2024-02-15T00:07:06;97577.41;;;8.48;83.66
83185;BME280;73080;48.768;11.528;2024-02-15T00:09:31;97583.22;;;8.50;83.92
83185;BME280;73080;48.768;11.528;2024-02-15T00:11:57;97586.22;;;8.53;83.41
83185;BME280;73080;48.768;11.528;2024-02-15T00:14:22;97589.91;;;8.46;84.02
83185;BME280;73080;48.768;11.528;2024-02-15T00:16:48;97589.75;;;8.41;84.17
83185;BME280;73080;48.768;11.528;2024-02-15T00:19:13;97589.31;;;8.44;83.93
83185;BME280;73080;48.768;11.528;2024-02-15T00:21:43;97587.53;;;8.38;83.49
83185;BME280;73080;48.768;11.528;2024-02-15T00:24:08;97584.28;;;8.42;83.92
83185;BME280;73080;48.768;11.528;2024-02-15T00:26:33;97588.22;;;8.51;83.59
83185;BME280;73080;48.768;11.528;2024-02-15T00:28:59;97594.94;;;8.47;84.14
83185;BME280;73080;48.768;11.528;2024-02-15T00:31:24;97587.75;;;8.36;84.49
83185;BME280;73080;48.768;11.528;2024-02-15T00:33:49;97582.53;;;8.30;84.78
83185;BME280;73080;48.768;11.528;2024-02-15T00:36:15;97587.69;;;8.43;84.47
83185;BME280;73080;48.768;11.528;2024-02-15T00:38:41;97588.50;;;8.43;84.31
83185;BME280;73080;48.768;11.528;2024-02-15T00:41:06;97586.41;;;8.52;83.77
83185;BME280;73080;48.768;11.528;2024-02-15T00:43:35;97585.56;;;8.58;84.08
83185;BME280;73080;48.768;11.528;2024-02-15T00:46:00;97588.56;;;8.62;83.58
83185;BME280;73080;48.768;11.528;2024-02-15T00:48:25;97589.72;;;8.66;83.66
83185;BME280;73080;48.768;11.528;2024-02-15T00:50:54;97585.84;;;8.75;83.78
83185;BME280;73080;48.768;11.528;2024-02-15T00:53:19;97587.00;;;8.79;82.84
83185;BME280;73080;48.768;11.528;2024-02-15T00:55:44;97593.47;;;8.76;83.56
83185;BME280;73080;48.768;11.528;2024-02-15T00:58:10;97596.84;;;8.84;83.07
83185;BME280;73080;48.768;11.528;2024-02-15T01:00:35;97593.63;;;8.82;83.45
83185;BME280;73080;48.768;11.528;2024-02-15T01:03:04;97586.31;;;8.65;83.55
83185;BME280;73080;48.768;11.528;2024-02-15T01:05:29;97588.97;;;8.59;84.04
83185;BME280;73080;48.768;11.528;2024-02-15T01:07:55;97591.72;;;8.70;83.94
83185;BME280;73080;48.768;11.528;2024-02-15T01:10:20;97589.88;;;8.71;83.44
83185;BME280;73080;48.768;11.528;2024-02-15T01:12:46;97572.00;;;8.68;83.86
83185;BME280;73080;48.768;11.528;2024-02-15T01:15:11;97575.75;;;8.53;84.37
83185;BME280;73080;48.768;11.528;2024-02-15T01:17:36;97576.63;;;8.66;83.96
83185;BME280;73080;48.768;11.528;2024-02-15T01:20:02;97574.06;;;8.59;83.97
83185;BME280;73080;48.768;11.528;2024-02-15T01:22:30;97570.88;;;8.32;85.84
83185;BME280;73080;48.768;11.528;2024-02-15T01:24:56;97574.72;;;8.23;86.65
83185;BME280;73080;48.768;11.528;2024-02-15T01:27:21;97579.56;;;8.26;86.33
83185;BME280;73080;48.768;11.528;2024-02-15T01:29:46;97576.81;;;8.14;87.07
83185;BME280;73080;48.768;11.528;2024-02-15T01:32:12;97579.25;;;8.09;86.99
83185;BME280;73080;48.768;11.528;2024-02-15T01:34:37;97574.63;;;8.11;87.13
83185;BME280;73080;48.768;11.528;2024-02-15T01:37:06;97573.19;;;8.15;87.04
83185;BME280;73080;48.768;11.528;2024-02-15T01:39:31;97580.06;;;8.10;87.45
83185;BME280;73080;48.768;11.528;2024-02-15T01:41:56;97572.22;;;8.10;87.24
83185;BME280;73080;48.768;11.528;2024-02-15T01:44:22;97564.38;;;8.10;87.47
83185;BME280;73080;48.768;11.528;2024-02-15T01:46:48;97564.75;;;8.13;87.17
83185;BME280;73080;48.768;11.528;2024-02-15T01:49:14;97563.91;;;8.19;86.76
83185;BME280;73080;48.768;11.528;2024-02-15T01:51:45;97565.25;;;8.29;86.56
83185;BME280;73080;48.768;11.528;2024-02-15T01:54:12;97562.38;;;8.37;86.23
83185;BME280;73080;48.768;11.528;2024-02-15T01:56:38;97566.03;;;8.36;86.04
83185;BME280;73080;48.768;11.528;2024-02-15T01:59:04;97554.94;;;8.34;85.86
83185;BME280;73080;48.768;11.528;2024-02-15T02:01:30;97563.25;;;8.24;86.55
83185;BME280;73080;48.768;11.528;2024-02-15T02:03:56;97564.75;;;8.13;87.03
83185;BME280;73080;48.768;11.528;2024-02-15T02:06:22;97564.97;;;8.12;87.01
83185;BME280;73080;48.768;11.528;2024-02-15T02:08:47;97562.97;;;8.07;87.31
83185;BME280;73080;48.768;11.528;2024-02-15T02:11:13;97557.94;;;8.12;86.97
83185;BME280;73080;48.768;11.528;2024-02-15T02:13:41;97553.75;;;8.30;86.01
83185;BME280;73080;48.768;11.528;2024-02-15T02:16:24;97548.56;;;8.23;85.99
83185;BME280;73080;48.768;11.528;2024-02-15T02:18:49;97557.22;;;8.23;85.57
83185;BME280;73080;48.768;11.528;2024-02-15T02:21:15;97557.63;;;8.27;85.84
83185;BME280;73080;48.768;11.528;2024-02-15T02:23:40;97554.50;;;8.43;84.66
83185;BME280;73080;48.768;11.528;2024-02-15T02:26:09;97558.06;;;8.49;84.58
83185;BME280;73080;48.768;11.528;2024-02-15T02:28:34;97557.22;;;8.55;83.97
83185;BME280;73080;48.768;11.528;2024-02-15T02:30:59;97558.97;;;8.61;83.71
83185;BME280;73080;48.768;11.528;2024-02-15T02:33:25;97555.19;;;8.57;84.15
83185;BME280;73080;48.768;11.528;2024-02-15T02:35:50;97560.47;;;8.50;84.43
83185;BME280;73080;48.768;11.528;2024-02-15T02:38:16;97554.16;;;8.58;84.91
83185;BME280;73080;48.768;11.528;2024-02-15T02:40:44;97550.06;;;8.69;84.23
83185;BME280;73080;48.768;11.528;2024-02-15T02:43:09;97546.19;;;8.71;84.04
83185;BME280;73080;48.768;11.528;2024-02-15T02:45:35;97529.25;;;8.74;83.57
83185;BME280;73080;48.768;11.528;2024-02-15T02:48:00;97538.56;;;8.70;82.93
83185;BME280;73080;48.768;11.528;2024-02-15T02:50:26;97545.28;;;8.59;84.02
83185;BME280;73080;48.768;11.528;2024-02-15T02:52:51;97539.53;;;8.50;84.09
83185;BME280;73080;48.768;11.528;2024-02-15T02:55:17;97536.84;;;8.57;83.99
83185;BME280;73080;48.768;11.528;2024-02-15T02:57:42;97543.09;;;8.56;83.72
83185;BME280;73080;48.768;11.528;2024-02-15T03:00:10;97545.94;;;8.55;83.57
83185;BME280;73080;48.768;11.528;2024-02-15T03:02:36;97544.81;;;8.69;83.29
83185;BME280;73080;48.768;11.528;2024-02-15T03:05:05;97540.72;;;8.73;83.35
83185;BME280;73080;48.768;11.528;2024-02-15T03:07:34;97539.97;;;8.47;84.74
83185;BME280;73080;48.768;11.528;2024-02-15T03:10:04;97544.66;;;8.64;83.84
83185;BME280;73080;48.768;11.528;2024-02-15T03:12:32;97553.34;;;8.58;83.47
83185;BME280;73080;48.768;11.528;2024-02-15T03:15:02;97546.69;;;8.62;84.14
83185;BME280;73080;48.768;11.528;2024-02-15T03:17:27;97547.84;;;8.66;84.21
83185;BME280;73080;48.768;11.528;2024-02-15T03:19:53;97557.78;;;8.57;83.75
83185;BME280;73080;48.768;11.528;2024-02-15T03:22:18;97548.34;;;8.56;83.86
83185;BME280;73080;48.768;11.528;2024-02-15T03:24:44;97547.59;;;8.49;84.92
83185;BME280;73080;48.768;11.528;2024-02-15T03:27:09;97537.50;;;8.52;84.57
83185;BME280;73080;48.768;11.528;2024-02-15T03:29:34;97535.63;;;8.35;84.76
83185;BME280;73080;48.768;11.528;2024-02-15T03:32:03;97537.44;;;8.34;84.99
83185;BME280;73080;48.768;11.528;2024-02-15T03:34:28;97530.34;;;8.41;85.18
83185;BME280;73080;48.768;11.528;2024-02-15T03:36:53;97539.38;;;8.45;85.08
83185;BME280;73080;48.768;11.528;2024-02-15T03:39:19;97540.25;;;8.39;84.93
83185;BME280;73080;48.768;11.528;2024-02-15T03:41:45;97540.19;;;8.46;84.82
83185;BME280;73080;48.768;11.528;2024-02-15T03:44:11;97541.91;;;8.27;84.88
83185;BME280;73080;48.768;11.528;2024-02-15T03:46:37;97545.47;;;8.39;84.74
83185;BME280;73080;48.768;11.528;2024-02-15T03:49:02;97549.59;;;8.53;84.59
83185;BME280;73080;48.768;11.528;2024-02-15T03:51:27;97550.44;;;8.47;83.70
83185;BME280;73080;48.768;11.528;2024-02-15T03:53:53;97552.72;;;8.62;83.77
83185;BME280;73080;48.768;11.528;2024-02-15T03:56:19;97550.63;;;8.71;83.51
83185;BME280;73080;48.768;11.528;2024-02-15T03:58:44;97551.00;;;8.74;82.99
83185;BME280;73080;48.768;11.528;2024-02-15T04:01:09;97548.75;;;8.78;82.95
83185;BME280;73080;48.768;11.528;2024-02-15T04:03:38;97552.09;;;8.85;82.14
83185;BME280;73080;48.768;11.528;2024-02-15T04:06:03;97563.16;;;8.87;81.91
83185;BME280;73080;48.768;11.528;2024-02-15T04:08:29;97554.72;;;8.85;81.91
83185;BME280;73080;48.768;11.528;2024-02-15T04:10:54;97561.25;;;8.76;82.30
83185;BME280;73080;48.768;11.528;2024-02-15T04:13:22;97554.03;;;8.71;82.74
83185;BME280;73080;48.768;11.528;2024-02-15T04:15:48;97559.44;;;8.76;82.86
83185;BME280;73080;48.768;11.528;2024-02-15T04:18:13;97562.22;;;8.82;82.24
83185;BME280;73080;48.768;11.528;2024-02-15T04:20:39;97558.56;;;8.83;81.70
83185;BME280;73080;48.768;11.528;2024-02-15T04:23:04;97558.41;;;8.77;82.05
83185;BME280;73080;48.768;11.528;2024-02-15T04:25:30;97551.25;;;8.48;83.42
83185;BME280;73080;48.768;11.528;2024-02-15T04:27:55;97556.88;;;8.70;82.83
83185;BME280;73080;48.768;11.528;2024-02-15T04:30:21;97555.97;;;8.58;83.36
83185;BME280;73080;48.768;11.528;2024-02-15T04:32:46;97553.34;;;8.39;83.90
83185;BME280;73080;48.768;11.528;2024-02-15T04:35:11;97548.75;;;8.28;84.82
83185;BME280;73080;48.768;11.528;2024-02-15T04:37:37;97542.19;;;8.44;84.02
83185;BME280;73080;48.768;11.528;2024-02-15T04:40:03;97543.75;;;8.51;83.87
83185;BME280;73080;48.768;11.528;2024-02-15T04:42:28;97548.56;;;8.55;83.22
83185;BME280;73080;48.768;11.528;2024-02-15T04:44:54;97540.06;;;8.59;83.59
83185;BME280;73080;48.768;11.528;2024-02-15T04:47:20;97538.09;;;8.55;83.22
83185;BME280;73080;48.768;11.528;2024-02-15T04:49:45;97533.88;;;8.53;83.38
83185;BME280;73080;48.768;11.528;2024-02-15T04:52:11;97531.00;;;8.62;83.10
83185;BME280;73080;48.768;11.528;2024-02-15T04:54:36;97536.22;;;8.62;83.17
83185;BME280;73080;48.768;11.528;2024-02-15T04:57:01;97539.53;;;8.50;83.49
83185;BME280;73080;48.768;11.528;2024-02-15T04:59:27;97542.19;;;8.44;83.79
83185;BME280;73080;48.768;11.528;2024-02-15T05:01:52;97543.66;;;8.40;84.16
83185;BME280;73080;48.768;11.528;2024-02-15T05:04:18;97542.59;;;8.47;83.92
83185;BME280;73080;48.768;11.528;2024-02-15T05:06:43;97534.75;;;8.47;83.62
83185;BME280;73080;48.768;11.528;2024-02-15T05:09:08;97539.25;;;8.59;83.70
83185;BME280;73080;48.768;11.528;2024-02-15T05:11:34;97542.84;;;8.64;83.44
83185;BME280;73080;48.768;11.528;2024-02-15T05:13:59;97543.94;;;8.75;82.75
83185;BME280;73080;48.768;11.528;2024-02-15T05:16:25;97535.81;;;8.83;82.64
83185;BME280;73080;48.768;11.528;2024-02-15T05:18:50;97531.44;;;8.77;82.95
83185;BME280;73080;48.768;11.528;2024-02-15T05:21:18;97535.25;;;8.81;82.55
83185;BME280;73080;48.768;11.528;2024-02-15T05:23:43;97535.81;;;8.83;82.42
83185;BME280;73080;48.768;11.528;2024-02-15T05:26:09;97534.91;;;8.71;82.94
83185;BME280;73080;48.768;11.528;2024-02-15T05:28:35;97534.34;;;8.69;82.32
83185;BME280;73080;48.768;11.528;2024-02-15T05:31:12;97530.25;;;8.73;82.35
83185;BME280;73080;48.768;11.528;2024-02-15T05:33:38;97537.25;;;8.61;83.13
83185;BME280;73080;48.768;11.528;2024-02-15T05:36:03;97540.28;;;8.58;83.51
83185;BME280;73080;48.768;11.528;2024-02-15T05:38:29;97535.13;;;8.69;83.07
83185;BME280;73080;48.768;11.528;2024-02-15T05:40:54;97534.56;;;8.67;83.05
83185;BME280;73080;48.768;11.528;2024-02-15T05:43:23;97535.03;;;8.58;82.96
83185;BME280;73080;48.768;11.528;2024-02-15T05:45:48;97537.13;;;8.74;82.12
83185;BME280;73080;48.768;11.528;2024-02-15T05:48:16;97542.53;;;8.54;82.43
83185;BME280;73080;48.768;11.528;2024-02-15T05:50:41;97537.44;;;8.34;83.66
83185;BME280;73080;48.768;11.528;2024-02-15T05:53:07;97547.78;;;8.22;84.87
83185;BME280;73080;48.768;11.528;2024-02-15T05:55:32;97545.81;;;8.18;84.94
83185;BME280;73080;48.768;11.528;2024-02-15T05:57:57;97549.84;;;8.14;85.20
83185;BME280;73080;48.768;11.528;2024-02-15T06:00:23;97552.25;;;8.15;85.27
83185;BME280;73080;48.768;11.528;2024-02-15T06:02:48;97553.06;;;8.16;85.51
83185;BME280;73080;48.768;11.528;2024-02-15T06:05:13;97557.28;;;8.17;85.27
83185;BME280;73080;48.768;11.528;2024-02-15T06:07:38;97556.47;;;8.16;85.37
83185;BME280;73080;48.768;11.528;2024-02-15T06:10:04;97555.09;;;8.14;85.55
83185;BME280;73080;48.768;11.528;2024-02-15T06:12:30;97553.72;;;8.11;85.51
83185;BME280;73080;48.768;11.528;2024-02-15T06:14:55;97559.94;;;8.10;85.70
83185;BME280;73080;48.768;11.528;2024-02-15T06:17:20;97556.31;;;8.11;85.60
83185;BME280;73080;48.768;11.528;2024-02-15T06:19:46;97558.06;;;8.17;85.56
83185;BME280;73080;48.768;11.528;2024-02-15T06:22:11;97559.47;;;8.20;85.56
83185;BME280;73080;48.768;11.528;2024-02-15T06:24:36;97567.09;;;8.21;85.79
83185;BME280;73080;48.768;11.528;2024-02-15T06:27:02;97562.91;;;8.20;85.84
83185;BME280;73080;48.768;11.528;2024-02-15T06:29:27;97565.88;;;8.24;85.77
83185;BME280;73080;48.768;11.528;2024-02-15T06:31:53;97564.06;;;8.24;85.84
83185;BME280;73080;48.768;11.528;2024-02-15T06:34:18;97572.56;;;8.20;85.94
83185;BME280;73080;48.768;11.528;2024-02-15T06:36:47;97574.72;;;8.23;85.78
83185;BME280;73080;48.768;11.528;2024-02-15T06:39:12;97567.50;;;8.25;85.70
83185;BME280;73080;48.768;11.528;2024-02-15T06:41:40;97567.91;;;8.22;85.82
83185;BME280;73080;48.768;11.528;2024-02-15T06:44:06;97571.72;;;8.26;85.75
83185;BME280;73080;48.768;11.528;2024-02-15T06:46:31;97568.06;;;8.27;85.56
83185;BME280;73080;48.768;11.528;2024-02-15T06:48:56;97568.81;;;8.34;85.70
83185;BME280;73080;48.768;11.528;2024-02-15T06:51:21;97570.84;;;8.39;85.69
83185;BME280;73080;48.768;11.528;2024-02-15T06:53:47;97577.88;;;8.38;85.25
83185;BME280;73080;48.768;11.528;2024-02-15T06:56:12;97576.56;;;8.22;85.49
83185;BME280;73080;48.768;11.528;2024-02-15T06:58:37;97579.34;;;8.27;85.10
83185;BME280;73080;48.768;11.528;2024-02-15T07:01:03;97577.97;;;8.25;85.26
83185;BME280;73080;48.768;11.528;2024-02-15T07:03:31;97563.19;;;8.37;85.38
83185;BME280;73080;48.768;11.528;2024-02-15T07:05:56;97565.97;;;8.42;84.54
83185;BME280;73080;48.768;11.528;2024-02-15T07:08:21;97571.22;;;8.42;84.58
83185;BME280;73080;48.768;11.528;2024-02-15T07:10:47;97566.50;;;8.51;84.25
83185;BME280;73080;48.768;11.528;2024-02-15T07:13:12;97567.84;;;8.60;83.92
83185;BME280;73080;48.768;11.528;2024-02-15T07:15:37;97569.63;;;8.60;83.76
83185;BME280;73080;48.768;11.528;2024-02-15T07:18:06;97563.53;;;8.47;83.80
83185;BME280;73080;48.768;11.528;2024-02-15T07:20:32;97560.91;;;8.47;84.02
83185;BME280;73080;48.768;11.528;2024-02-15T07:22:58;97560.75;;;8.42;83.78
83185;BME280;73080;48.768;11.528;2024-02-15T07:25:23;97568.38;;;8.44;84.11
83185;BME280;73080;48.768;11.528;2024-02-15T07:27:48;97561.94;;;8.46;83.78
83185;BME280;73080;48.768;11.528;2024-02-15T07:30:14;97559.25;;;8.53;83.52
83185;BME280;73080;48.768;11.528;2024-02-15T07:32:39;97561.66;;;8.73;82.71
83185;BME280;73080;48.768;11.528;2024-02-15T07:35:05;97559.22;;;8.78;82.78
83185;BME280;73080;48.768;11.528;2024-02-15T07:37:30;97562.22;;;8.82;82.38
83185;BME280;73080;48.768;11.528;2024-02-15T07:39:55;97563.00;;;9.00;81.36
83185;BME280;73080;48.768;11.528;2024-02-15T07:42:20;97567.44;;;9.00;81.32
83185;BME280;73080;48.768;11.528;2024-02-15T07:44:46;97573.88;;;9.04;80.69
83185;BME280;73080;48.768;11.528;2024-02-15T07:47:11;97566.66;;;8.99;81.05
83185;BME280;73080;48.768;11.528;2024-02-15T07:49:36;97564.78;;;9.25;81.17
83185;BME280;73080;48.768;11.528;2024-02-15T07:52:02;97565.19;;;9.40;80.35
83185;BME280;73080;48.768;11.528;2024-02-15T07:54:27;97572.38;;;9.93;78.79
83185;BME280;73080;48.768;11.528;2024-02-15T07:56:53;97571.22;;;9.89;78.54
83185;BME280;73080;48.768;11.528;2024-02-15T07:59:18;97571.94;;;9.66;78.76
83185;BME280;73080;48.768;11.528;2024-02-15T08:01:43;97564.81;;;9.85;77.89
83185;BME280;73080;48.768;11.528;2024-02-15T08:04:11;97574.69;;;9.71;78.20
83185;BME280;73080;48.768;11.528;2024-02-15T08:06:37;97575.56;;;9.65;79.36
83185;BME280;73080;48.768;11.528;2024-02-15T08:09:02;97569.44;;;9.71;79.25
83185;BME280;73080;48.768;11.528;2024-02-15T08:11:27;97569.03;;;9.56;79.41
83185;BME280;73080;48.768;11.528;2024-02-15T08:13:53;97563.38;;;9.59;79.66
83185;BME280;73080;48.768;11.528;2024-02-15T08:16:20;97564.81;;;9.85;79.49
83185;BME280;73080;48.768;11.528;2024-02-15T08:18:46;97564.69;;;10.10;77.15
83185;BME280;73080;48.768;11.528;2024-02-15T08:21:13;97560.81;;;10.12;76.85
83185;BME280;73080;48.768;11.528;2024-02-15T08:23:39;97564.56;;;10.58;75.88
83185;BME280;73080;48.768;11.528;2024-02-15T08:26:05;97544.00;;;10.55;74.46
83185;BME280;73080;48.768;11.528;2024-02-15T08:28:30;97545.72;;;10.61;74.61
83185;BME280;73080;48.768;11.528;2024-02-15T08:30:55;97549.38;;;10.37;75.17
83185;BME280;73080;48.768;11.528;2024-02-15T08:33:21;97547.75;;;10.48;75.13
83185;BME280;73080;48.768;11.528;2024-02-15T08:35:46;97547.31;;;10.51;74.10
83185;BME280;73080;48.768;11.528;2024-02-15T08:38:15;97542.03;;;10.27;75.15
83185;BME280;73080;48.768;11.528;2024-02-15T08:40:40;97530.88;;;10.55;75.00
83185;BME280;73080;48.768;11.528;2024-02-15T08:43:05;97546.84;;;10.42;74.30
83185;BME280;73080;48.768;11.528;2024-02-15T08:45:30;97537.50;;;10.81;72.98
83185;BME280;73080;48.768;11.528;2024-02-15T08:47:56;97531.13;;;10.65;73.80
83185;BME280;73080;48.768;11.528;2024-02-15T08:50:21;97537.91;;;11.13;72.07
83185;BME280;73080;48.768;11.528;2024-02-15T08:52:46;97536.84;;;11.26;70.33
83185;BME280;73080;48.768;11.528;2024-02-15T08:55:15;97535.06;;;11.03;70.74
83185;BME280;73080;48.768;11.528;2024-02-15T08:57:41;97543.44;;;10.88;70.77
83185;BME280;73080;48.768;11.528;2024-02-15T09:00:08;97533.25;;;10.57;70.88
83185;BME280;73080;48.768;11.528;2024-02-15T09:02:33;97537.97;;;11.70;68.86
83185;BME280;73080;48.768;11.528;2024-02-15T09:04:59;97530.16;;;11.47;68.29
83185;BME280;73080;48.768;11.528;2024-02-15T09:07:24;97530.34;;;11.28;69.24
83185;BME280;73080;48.768;11.528;2024-02-15T09:09:49;97534.22;;;11.66;68.52
83185;BME280;73080;48.768;11.528;2024-02-15T09:12:15;97530.13;;;11.18;68.89
83185;BME280;73080;48.768;11.528;2024-02-15T09:14:40;97540.44;;;11.89;68.65
83185;BME280;73080;48.768;11.528;2024-02-15T09:17:05;97531.19;;;11.46;68.76
83185;BME280;73080;48.768;11.528;2024-02-15T09:19:31;97536.56;;;11.79;68.25
83185;BME280;73080;48.768;11.528;2024-02-15T09:21:56;97524.81;;;11.70;67.70
83185;BME280;73080;48.768;11.528;2024-02-15T09:24:21;97521.19;;;11.31;67.23
83185;BME280;73080;48.768;11.528;2024-02-15T09:26:47;97524.91;;;11.07;68.28
83185;BME280;73080;48.768;11.528;2024-02-15T09:29:12;97518.38;;;11.09;68.61
83185;BME280;73080;48.768;11.528;2024-02-15T09:31:37;97517.28;;;11.62;67.77
83185;BME280;73080;48.768;11.528;2024-02-15T09:34:02;97515.09;;;11.71;66.81
83185;BME280;73080;48.768;11.528;2024-02-15T09:36:28;97514.91;;;11.20;66.41
83185;BME280;73080;48.768;11.528;2024-02-15T09:38:53;97512.09;;;11.10;67.53
83185;BME280;73080;48.768;11.528;2024-02-15T09:41:18;97513.34;;;11.76;66.46
83185;BME280;73080;48.768;11.528;2024-02-15T09:43:43;97513.66;;;11.92;65.29
83185;BME280;73080;48.768;11.528;2024-02-15T09:46:09;97512.53;;;12.38;64.13
83185;BME280;73080;48.768;11.528;2024-02-15T09:48:34;97519.69;;;12.76;61.75
83185;BME280;73080;48.768;11.528;2024-02-15T09:51:00;97502.25;;;12.03;63.79
83185;BME280;73080;48.768;11.528;2024-02-15T09:53:26;97509.75;;;12.61;63.78
83185;BME280;73080;48.768;11.528;2024-02-15T09:55:53;97505.44;;;12.55;62.93
83185;BME280;73080;48.768;11.528;2024-02-15T09:58:18;97501.00;;;12.22;65.45
83185;BME280;73080;48.768;11.528;2024-02-15T10:00:44;97497.47;;;12.33;65.16
83185;BME280;73080;48.768;11.528;2024-02-15T10:03:11;97504.09;;;12.36;63.12
83185;BME280;73080;48.768;11.528;2024-02-15T10:05:39;97493.09;;;12.78;64.58
83185;BME280;73080;48.768;11.528;2024-02-15T10:08:05;97499.38;;;12.55;65.16
83185;BME280;73080;48.768;11.528;2024-02-15T10:10:30;97499.97;;;12.79;63.13
83185;BME280;73080;48.768;11.528;2024-02-15T10:12:55;97500.72;;;13.18;63.08
83185;BME280;73080;48.768;11.528;2024-02-15T10:17:57;97498.03;;;12.91;63.10
83185;BME280;73080;48.768;11.528;2024-02-15T10:20:22;97493.00;;;13.11;63.13
83185;BME280;73080;48.768;11.528;2024-02-15T10:22:48;97492.69;;;13.52;61.07
83185;BME280;73080;48.768;11.528;2024-02-15T10:25:13;97495.88;;;13.81;59.09
83185;BME280;73080;48.768;11.528;2024-02-15T10:27:40;97494.06;;;14.50;59.96
83185;BME280;73080;48.768;11.528;2024-02-15T10:30:16;97481.22;;;13.19;62.08
83185;BME280;73080;48.768;11.528;2024-02-15T10:32:42;97483.00;;;14.21;58.58
83185;BME280;73080;48.768;11.528;2024-02-15T10:35:07;97482.47;;;14.19;60.11
83185;BME280;73080;48.768;11.528;2024-02-15T10:37:33;97481.66;;;13.55;61.14
83185;BME280;73080;48.768;11.528;2024-02-15T10:40:05;97488.09;;;14.28;60.27
83185;BME280;73080;48.768;11.528;2024-02-15T10:42:30;97478.63;;;14.32;59.02
83185;BME280;73080;48.768;11.528;2024-02-15T10:44:57;97471.41;;;13.90;59.29
83185;BME280;73080;48.768;11.528;2024-02-15T10:47:22;97471.28;;;13.75;58.89
83185;BME280;73080;48.768;11.528;2024-02-15T10:49:49;97465.31;;;14.22;58.81
83185;BME280;73080;48.768;11.528;2024-02-15T10:52:14;97476.41;;;13.60;59.27
83185;BME280;73080;48.768;11.528;2024-02-15T10:54:52;97467.47;;;14.30;58.00
83185;BME280;73080;48.768;11.528;2024-02-15T10:57:21;97464.03;;;13.92;59.54
83185;BME280;73080;48.768;11.528;2024-02-15T10:59:54;97457.88;;;14.51;58.70
83185;BME280;73080;48.768;11.528;2024-02-15T11:02:37;97456.06;;;13.87;59.31
83185;BME280;73080;48.768;11.528;2024-02-15T11:05:04;97448.53;;;14.38;58.77
83185;BME280;73080;48.768;11.528;2024-02-15T11:07:31;97446.81;;;14.54;57.89
83185;BME280;73080;48.768;11.528;2024-02-15T11:09:57;97441.56;;;14.22;58.94
83185;BME280;73080;48.768;11.528;2024-02-15T11:12:26;97439.53;;;13.97;59.33
83185;BME280;73080;48.768;11.528;2024-02-15T11:14:52;97443.28;;;14.06;57.83
83185;BME280;73080;48.768;11.528;2024-02-15T11:20:05;97436.13;;;13.69;59.24
83185;BME280;73080;48.768;11.528;2024-02-15T11:22:34;97427.84;;;13.56;60.55
83185;BME280;73080;48.768;11.528;2024-02-15T11:24:59;97424.81;;;13.74;59.29
83185;BME280;73080;48.768;11.528;2024-02-15T11:27:27;97423.53;;;14.46;58.24
83185;BME280;73080;48.768;11.528;2024-02-15T11:30:02;97418.88;;;14.26;58.09
83185;BME280;73080;48.768;11.528;2024-02-15T11:32:43;97409.28;;;14.57;60.47
83185;BME280;73080;48.768;11.528;2024-02-15T11:35:09;97411.09;;;15.09;57.37
83185;BME280;73080;48.768;11.528;2024-02-15T11:40:25;97405.06;;;15.34;55.65
83185;BME280;73080;48.768;11.528;2024-02-15T11:42:55;97399.88;;;14.76;58.66
83185;BME280;73080;48.768;11.528;2024-02-15T11:45:23;97396.59;;;15.27;56.96
83185;BME280;73080;48.768;11.528;2024-02-15T11:47:50;97390.78;;;15.30;56.46
83185;BME280;73080;48.768;11.528;2024-02-15T11:50:17;97383.28;;;14.96;56.24
83185;BME280;73080;48.768;11.528;2024-02-15T11:52:46;97384.13;;;15.12;56.06
83185;BME280;73080;48.768;11.528;2024-02-15T11:55:12;97377.34;;;15.62;56.64
83185;BME280;73080;48.768;11.528;2024-02-15T11:57:37;97380.19;;;16.32;55.02
83185;BME280;73080;48.768;11.528;2024-02-15T12:00:03;97369.41;;;15.87;52.05
83185;BME280;73080;48.768;11.528;2024-02-15T12:02:31;97361.16;;;15.99;53.04
83185;BME280;73080;48.768;11.528;2024-02-15T12:04:57;97361.69;;;16.11;53.36
83185;BME280;73080;48.768;11.528;2024-02-15T12:07:22;97366.94;;;16.32;53.02
83185;BME280;73080;48.768;11.528;2024-02-15T12:09:47;97359.03;;;15.40;54.78
83185;BME280;73080;48.768;11.528;2024-02-15T12:12:13;97365.44;;;15.75;54.97
83185;BME280;73080;48.768;11.528;2024-02-15T12:14:38;97364.84;;;16.18;52.92
83185;BME280;73080;48.768;11.528;2024-02-15T12:17:05;97355.09;;;15.83;53.84
83185;BME280;73080;48.768;11.528;2024-02-15T12:19:31;97354.50;;;15.10;55.08
83185;BME280;73080;48.768;11.528;2024-02-15T12:22:00;97351.66;;;15.62;53.53
83185;BME280;73080;48.768;11.528;2024-02-15T12:24:26;97350.56;;;15.43;53.18
83185;BME280;73080;48.768;11.528;2024-02-15T12:26:51;97353.25;;;15.79;53.81
83185;BME280;73080;48.768;11.528;2024-02-15T12:29:17;97346.53;;;14.90;55.35
83185;BME280;73080;48.768;11.528;2024-02-15T12:31:43;97353.16;;;15.02;55.23
83185;BME280;73080;48.768;11.528;2024-02-15T12:34:08;97341.25;;;15.00;55.56
83185;BME280;73080;48.768;11.528;2024-02-15T12:36:34;97335.88;;;14.69;55.46
83185;BME280;73080;48.768;11.528;2024-02-15T12:39:01;97338.16;;;15.38;53.55
83185;BME280;73080;48.768;11.528;2024-02-15T12:41:30;97326.78;;;15.74;53.76
83185;BME280;73080;48.768;11.528;2024-02-15T12:43:55;97330.84;;;16.41;52.13
83185;BME280;73080;48.768;11.528;2024-02-15T12:46:21;97331.53;;;15.51;53.74
83185;BME280;73080;48.768;11.528;2024-02-15T12:48:46;97321.19;;;15.09;54.59
83185;BME280;73080;48.768;11.528;2024-02-15T12:51:14;97327.00;;;15.57;54.21
83185;BME280;73080;48.768;11.528;2024-02-15T12:53:40;97314.59;;;15.32;54.82
83185;BME280;73080;48.768;11.528;2024-02-15T12:56:05;97311.38;;;15.04;54.40
83185;BME280;73080;48.768;11.528;2024-02-15T12:58:31;97303.75;;;15.33;53.79
83185;BME280;73080;48.768;11.528;2024-02-15T13:00:56;97300.03;;;15.04;55.03